sensor_id;sensor_type;location;lat;lon;timestamp;P1;durP1;ratioP1;P2;durP2;ratioP2
1949;SDS011;975;48.760;9.152;2023-04-21T00:00:08;22.10;;;10.35;;
1949;SDS011;975;48.760;9.152;2023-04-21T00:02:37;23.17;;;10.02;;
1949;SDS011;975;48.760;9.152;2023-04-21T00:05:06;20.48;;;10.15;;
1949;SDS011;975;48.760;9.152;2023-04-21T00:07:34;21.55;;;10.40;;
1949;SDS011;975;48.760;9.152;2023-04-21T00:10:04;19.75;;;10.02;;
1949;SDS011;975;48.760;9.152;2023-04-21T00:12:32;21.95;;;10.07;;
1949;SDS011;975;48.760;9.152;2023-04-21T00:15:00;25.10;;;11.45;;
1949;SDS011;975;48.760;9.152;2023-04-21T00:17:28;25.30;;;10.55;;
1949;SDS011;975;48.760;9.152;2023-04-21T00:19:56;20.10;;;10.48;;
1949;SDS011;975;48.760;9.152;2023-04-21T00:22:24;23.80;;;10.60;;
1949;SDS011;975;48.760;9.152;2023-04-21T00:24:52;22.50;;;10.82;;
1949;SDS011;975;48.760;9.152;2023-04-21T00:27:19;26.40;;;11.52;;
1949;SDS011;975;48.760;9.152;2023-04-21T00:29:47;24.25;;;11.02;;
1949;SDS011;975;48.760;9.152;2023-04-21T00:32:14;24.77;;;11.55;;
1949;SDS011;975;48.760;9.152;2023-04-21T00:34:42;21.40;;;10.98;;
1949;SDS011;975;48.760;9.152;2023-04-21T00:37:11;22.15;;;11.02;;
1949;SDS011;975;48.760;9.152;2023-04-21T00:39:38;23.50;;;11.80;;
1949;SDS011;975;48.760;9.152;2023-04-21T00:42:06;24.30;;;11.75;;
1949;SDS011;975;48.760;9.152;2023-04-21T00:44:34;21.30;;;10.45;;
1949;SDS011;975;48.760;9.152;2023-04-21T00:47:01;22.77;;;11.13;;
1949;SDS011;975;48.760;9.152;2023-04-21T00:49:29;23.98;;;11.93;;
1949;SDS011;975;48.760;9.152;2023-04-21T00:51:57;20.08;;;10.27;;
1949;SDS011;975;48.760;9.152;2023-04-21T00:54:26;21.90;;;11.07;;
1949;SDS011;975;48.760;9.152;2023-04-21T00:56:54;22.60;;;11.00;;
1949;SDS011;975;48.760;9.152;2023-04-21T00:59:22;22.55;;;10.95;;
1949;SDS011;975;48.760;9.152;2023-04-21T01:01:50;19.40;;;10.27;;
1949;SDS011;975;48.760;9.152;2023-04-21T01:04:18;22.90;;;10.25;;
1949;SDS011;975;48.760;9.152;2023-04-21T01:06:45;24.67;;;11.18;;
1949;SDS011;975;48.760;9.152;2023-04-21T01:09:13;22.08;;;10.68;;
1949;SDS011;975;48.760;9.152;2023-04-21T01:11:42;21.65;;;10.90;;
1949;SDS011;975;48.760;9.152;2023-04-21T01:14:26;19.75;;;9.88;;
1949;SDS011;975;48.760;9.152;2023-04-21T01:16:54;23.30;;;10.70;;
1949;SDS011;975;48.760;9.152;2023-04-21T01:19:22;24.05;;;10.95;;
1949;SDS011;975;48.760;9.152;2023-04-21T01:21:52;24.77;;;10.07;;
1949;SDS011;975;48.760;9.152;2023-04-21T01:24:22;18.95;;;10.45;;
1949;SDS011;975;48.760;9.152;2023-04-21T01:26:50;21.23;;;10.80;;
1949;SDS011;975;48.760;9.152;2023-04-21T01:29:20;20.17;;;9.90;;
1949;SDS011;975;48.760;9.152;2023-04-21T01:31:48;23.25;;;11.15;;
1949;SDS011;975;48.760;9.152;2023-04-21T01:34:15;20.15;;;10.10;;
1949;SDS011;975;48.760;9.152;2023-04-21T01:36:43;21.63;;;10.73;;
1949;SDS011;975;48.760;9.152;2023-04-21T01:39:12;21.75;;;10.60;;
1949;SDS011;975;48.760;9.152;2023-04-21T01:41:39;23.95;;;10.93;;
1949;SDS011;975;48.760;9.152;2023-04-21T01:44:07;23.17;;;10.55;;
1949;SDS011;975;48.760;9.152;2023-04-21T01:46:35;21.38;;;11.73;;
1949;SDS011;975;48.760;9.152;2023-04-21T01:49:03;21.80;;;11.30;;
1949;SDS011;975;48.760;9.152;2023-04-21T01:51:30;23.77;;;10.82;;
1949;SDS011;975;48.760;9.152;2023-04-21T01:53:58;23.88;;;12.15;;
1949;SDS011;975;48.760;9.152;2023-04-21T01:56:27;25.08;;;11.93;;
1949;SDS011;975;48.760;9.152;2023-04-21T01:58:54;21.08;;;11.02;;
1949;SDS011;975;48.760;9.152;2023-04-21T02:01:22;23.52;;;10.77;;
1949;SDS011;975;48.760;9.152;2023-04-21T02:03:50;20.60;;;11.32;;
1949;SDS011;975;48.760;9.152;2023-04-21T02:06:17;23.90;;;10.75;;
1949;SDS011;975;48.760;9.152;2023-04-21T02:08:45;25.08;;;11.63;;
1949;SDS011;975;48.760;9.152;2023-04-21T02:11:13;19.90;;;10.27;;
1949;SDS011;975;48.760;9.152;2023-04-21T02:13:41;24.20;;;11.43;;
1949;SDS011;975;48.760;9.152;2023-04-21T02:16:09;26.40;;;11.45;;
1949;SDS011;975;48.760;9.152;2023-04-21T02:18:37;19.42;;;10.73;;
1949;SDS011;975;48.760;9.152;2023-04-21T02:21:06;22.13;;;10.15;;
1949;SDS011;975;48.760;9.152;2023-04-21T02:23:33;22.38;;;11.07;;
1949;SDS011;975;48.760;9.152;2023-04-21T02:26:01;23.38;;;11.45;;
1949;SDS011;975;48.760;9.152;2023-04-21T02:28:28;24.83;;;10.70;;
1949;SDS011;975;48.760;9.152;2023-04-21T02:30:57;25.80;;;11.40;;
1949;SDS011;975;48.760;9.152;2023-04-21T02:33:25;26.65;;;11.38;;
1949;SDS011;975;48.760;9.152;2023-04-21T02:35:52;25.55;;;11.88;;
1949;SDS011;975;48.760;9.152;2023-04-21T02:38:20;27.02;;;12.45;;
1949;SDS011;975;48.760;9.152;2023-04-21T02:40:48;22.05;;;10.80;;
1949;SDS011;975;48.760;9.152;2023-04-21T02:43:16;23.33;;;10.77;;
1949;SDS011;975;48.760;9.152;2023-04-21T02:45:44;22.15;;;11.07;;
1949;SDS011;975;48.760;9.152;2023-04-21T02:48:12;24.20;;;10.85;;
1949;SDS011;975;48.760;9.152;2023-04-21T02:50:41;21.58;;;10.35;;
1949;SDS011;975;48.760;9.152;2023-04-21T02:53:09;22.70;;;11.35;;
1949;SDS011;975;48.760;9.152;2023-04-21T02:55:36;24.05;;;11.23;;
1949;SDS011;975;48.760;9.152;2023-04-21T02:58:04;24.63;;;11.27;;
1949;SDS011;975;48.760;9.152;2023-04-21T03:00:37;22.55;;;10.65;;
1949;SDS011;975;48.760;9.152;2023-04-21T03:03:05;24.40;;;11.27;;
1949;SDS011;975;48.760;9.152;2023-04-21T03:05:34;25.42;;;10.95;;
1949;SDS011;975;48.760;9.152;2023-04-21T03:08:01;24.90;;;11.43;;
1949;SDS011;975;48.760;9.152;2023-04-21T03:10:29;22.08;;;10.07;;
1949;SDS011;975;48.760;9.152;2023-04-21T03:12:57;26.70;;;11.00;;
1949;SDS011;975;48.760;9.152;2023-04-21T03:15:25;25.17;;;11.18;;
1949;SDS011;975;48.760;9.152;2023-04-21T03:17:52;23.67;;;10.93;;
1949;SDS011;975;48.760;9.152;2023-04-21T03:20:20;23.70;;;10.05;;
1949;SDS011;975;48.760;9.152;2023-04-21T03:22:48;24.88;;;10.73;;
1949;SDS011;975;48.760;9.152;2023-04-21T03:25:16;22.63;;;10.65;;
1949;SDS011;975;48.760;9.152;2023-04-21T03:27:44;25.95;;;11.00;;
1949;SDS011;975;48.760;9.152;2023-04-21T03:30:11;23.27;;;10.80;;
1949;SDS011;975;48.760;9.152;2023-04-21T03:32:39;26.88;;;12.43;;
1949;SDS011;975;48.760;9.152;2023-04-21T03:35:06;24.98;;;10.75;;
1949;SDS011;975;48.760;9.152;2023-04-21T03:37:34;26.42;;;10.40;;
1949;SDS011;975;48.760;9.152;2023-04-21T03:40:03;27.38;;;11.75;;
1949;SDS011;975;48.760;9.152;2023-04-21T03:42:31;25.42;;;11.02;;
1949;SDS011;975;48.760;9.152;2023-04-21T03:45:00;27.10;;;12.02;;
1949;SDS011;975;48.760;9.152;2023-04-21T03:47:30;26.58;;;12.32;;
1949;SDS011;975;48.760;9.152;2023-04-21T03:49:58;22.90;;;10.80;;
1949;SDS011;975;48.760;9.152;2023-04-21T03:52:26;24.52;;;11.25;;
1949;SDS011;975;48.760;9.152;2023-04-21T03:54:53;26.10;;;11.45;;
1949;SDS011;975;48.760;9.152;2023-04-21T03:57:22;26.70;;;11.57;;
1949;SDS011;975;48.760;9.152;2023-04-21T03:59:50;23.90;;;10.88;;
1949;SDS011;975;48.760;9.152;2023-04-21T04:02:17;25.15;;;11.50;;
1949;SDS011;975;48.760;9.152;2023-04-21T04:04:45;23.42;;;11.15;;
1949;SDS011;975;48.760;9.152;2023-04-21T04:07:13;22.27;;;10.32;;
1949;SDS011;975;48.760;9.152;2023-04-21T04:09:41;22.15;;;10.43;;
1949;SDS011;975;48.760;9.152;2023-04-21T04:12:09;22.65;;;10.98;;
1949;SDS011;975;48.760;9.152;2023-04-21T04:14:38;20.20;;;9.77;;
1949;SDS011;975;48.760;9.152;2023-04-21T04:17:09;20.73;;;10.13;;
1949;SDS011;975;48.760;9.152;2023-04-21T04:19:36;21.70;;;10.25;;
1949;SDS011;975;48.760;9.152;2023-04-21T04:22:04;21.23;;;10.23;;
1949;SDS011;975;48.760;9.152;2023-04-21T04:24:32;24.63;;;10.77;;
1949;SDS011;975;48.760;9.152;2023-04-21T04:27:00;20.02;;;10.13;;
1949;SDS011;975;48.760;9.152;2023-04-21T04:29:28;24.98;;;10.32;;
1949;SDS011;975;48.760;9.152;2023-04-21T04:31:57;20.95;;;9.82;;
1949;SDS011;975;48.760;9.152;2023-04-21T04:34:26;22.45;;;9.55;;
1949;SDS011;975;48.760;9.152;2023-04-21T04:36:53;24.73;;;10.35;;
1949;SDS011;975;48.760;9.152;2023-04-21T04:39:21;22.17;;;11.02;;
1949;SDS011;975;48.760;9.152;2023-04-21T04:41:50;24.67;;;9.95;;
1949;SDS011;975;48.760;9.152;2023-04-21T04:44:18;21.55;;;10.30;;
1949;SDS011;975;48.760;9.152;2023-04-21T04:46:48;25.35;;;10.63;;
1949;SDS011;975;48.760;9.152;2023-04-21T04:49:17;24.23;;;10.82;;
1949;SDS011;975;48.760;9.152;2023-04-21T04:51:44;24.58;;;10.70;;
1949;SDS011;975;48.760;9.152;2023-04-21T04:54:12;24.88;;;10.70;;
1949;SDS011;975;48.760;9.152;2023-04-21T04:56:39;20.92;;;10.25;;
1949;SDS011;975;48.760;9.152;2023-04-21T04:59:07;27.42;;;11.75;;
1949;SDS011;975;48.760;9.152;2023-04-21T05:01:35;27.08;;;11.35;;
1949;SDS011;975;48.760;9.152;2023-04-21T05:04:04;25.00;;;11.13;;
1949;SDS011;975;48.760;9.152;2023-04-21T05:06:33;25.15;;;10.18;;
1949;SDS011;975;48.760;9.152;2023-04-21T05:09:02;19.98;;;9.80;;
1949;SDS011;975;48.760;9.152;2023-04-21T05:11:30;21.55;;;9.77;;
1949;SDS011;975;48.760;9.152;2023-04-21T05:13:59;23.35;;;10.55;;
1949;SDS011;975;48.760;9.152;2023-04-21T05:16:26;19.58;;;9.60;;
1949;SDS011;975;48.760;9.152;2023-04-21T05:18:54;20.23;;;9.15;;
1949;SDS011;975;48.760;9.152;2023-04-21T05:21:22;25.35;;;10.98;;
1949;SDS011;975;48.760;9.152;2023-04-21T05:23:53;22.55;;;10.85;;
1949;SDS011;975;48.760;9.152;2023-04-21T05:26:21;23.73;;;11.15;;
1949;SDS011;975;48.760;9.152;2023-04-21T05:28:49;25.95;;;11.23;;
1949;SDS011;975;48.760;9.152;2023-04-21T05:31:16;20.20;;;9.85;;
1949;SDS011;975;48.760;9.152;2023-04-21T05:33:44;25.33;;;10.20;;
1949;SDS011;975;48.760;9.152;2023-04-21T05:36:12;22.92;;;10.00;;
1949;SDS011;975;48.760;9.152;2023-04-21T05:38:43;21.90;;;11.20;;
1949;SDS011;975;48.760;9.152;2023-04-21T05:41:12;20.45;;;10.82;;
1949;SDS011;975;48.760;9.152;2023-04-21T05:43:40;23.55;;;10.63;;
1949;SDS011;975;48.760;9.152;2023-04-21T05:46:08;21.95;;;11.02;;
1949;SDS011;975;48.760;9.152;2023-04-21T05:48:36;18.80;;;10.10;;
1949;SDS011;975;48.760;9.152;2023-04-21T05:51:07;23.20;;;11.00;;
1949;SDS011;975;48.760;9.152;2023-04-21T05:53:36;23.45;;;11.18;;
1949;SDS011;975;48.760;9.152;2023-04-21T05:56:04;23.52;;;10.70;;
1949;SDS011;975;48.760;9.152;2023-04-21T05:58:33;21.58;;;10.02;;
1949;SDS011;975;48.760;9.152;2023-04-21T06:01:01;24.67;;;11.13;;
1949;SDS011;975;48.760;9.152;2023-04-21T06:03:29;26.90;;;11.90;;
1949;SDS011;975;48.760;9.152;2023-04-21T06:05:57;24.30;;;10.93;;
1949;SDS011;975;48.760;9.152;2023-04-21T06:08:25;24.27;;;10.15;;
1949;SDS011;975;48.760;9.152;2023-04-21T06:10:53;23.42;;;11.00;;
1949;SDS011;975;48.760;9.152;2023-04-21T06:13:21;24.90;;;11.43;;
1949;SDS011;975;48.760;9.152;2023-04-21T06:15:50;23.13;;;11.65;;
1949;SDS011;975;48.760;9.152;2023-04-21T06:18:17;28.30;;;12.32;;
1949;SDS011;975;48.760;9.152;2023-04-21T06:20:48;21.90;;;10.30;;
1949;SDS011;975;48.760;9.152;2023-04-21T06:23:16;23.98;;;11.25;;
1949;SDS011;975;48.760;9.152;2023-04-21T06:25:43;24.65;;;12.00;;
1949;SDS011;975;48.760;9.152;2023-04-21T06:28:11;26.67;;;12.75;;
1949;SDS011;975;48.760;9.152;2023-04-21T06:30:39;29.13;;;12.38;;
1949;SDS011;975;48.760;9.152;2023-04-21T06:33:08;30.33;;;13.52;;
1949;SDS011;975;48.760;9.152;2023-04-21T06:35:35;28.35;;;13.07;;
1949;SDS011;975;48.760;9.152;2023-04-21T06:38:04;26.27;;;11.90;;
1949;SDS011;975;48.760;9.152;2023-04-21T06:40:31;27.73;;;12.68;;
1949;SDS011;975;48.760;9.152;2023-04-21T06:43:00;28.63;;;12.88;;
1949;SDS011;975;48.760;9.152;2023-04-21T06:45:27;27.45;;;12.68;;
1949;SDS011;975;48.760;9.152;2023-04-21T06:47:55;31.35;;;13.35;;
1949;SDS011;975;48.760;9.152;2023-04-21T06:50:24;28.55;;;12.40;;
1949;SDS011;975;48.760;9.152;2023-04-21T06:52:51;26.63;;;13.05;;
1949;SDS011;975;48.760;9.152;2023-04-21T06:55:19;24.63;;;11.77;;
1949;SDS011;975;48.760;9.152;2023-04-21T06:57:46;25.50;;;12.13;;
1949;SDS011;975;48.760;9.152;2023-04-21T07:00:14;27.75;;;13.43;;
1949;SDS011;975;48.760;9.152;2023-04-21T07:02:42;36.22;;;15.65;;
1949;SDS011;975;48.760;9.152;2023-04-21T07:05:10;28.80;;;12.40;;
1949;SDS011;975;48.760;9.152;2023-04-21T07:07:39;33.45;;;14.23;;
1949;SDS011;975;48.760;9.152;2023-04-21T07:10:07;27.58;;;13.18;;
1949;SDS011;975;48.760;9.152;2023-04-21T07:12:35;25.48;;;12.63;;
1949;SDS011;975;48.760;9.152;2023-04-21T07:15:03;29.23;;;12.77;;
1949;SDS011;975;48.760;9.152;2023-04-21T07:17:30;26.58;;;12.50;;
1949;SDS011;975;48.760;9.152;2023-04-21T07:19:58;25.85;;;13.23;;
1949;SDS011;975;48.760;9.152;2023-04-21T07:22:25;25.33;;;12.60;;
1949;SDS011;975;48.760;9.152;2023-04-21T07:24:54;26.63;;;12.93;;
1949;SDS011;975;48.760;9.152;2023-04-21T07:27:23;24.92;;;12.82;;
1949;SDS011;975;48.760;9.152;2023-04-21T07:29:56;27.00;;;12.45;;
1949;SDS011;975;48.760;9.152;2023-04-21T07:32:27;23.98;;;11.88;;
1949;SDS011;975;48.760;9.152;2023-04-21T07:34:55;23.33;;;11.73;;
1949;SDS011;975;48.760;9.152;2023-04-21T07:37:26;22.70;;;11.98;;
1949;SDS011;975;48.760;9.152;2023-04-21T07:39:55;21.50;;;10.75;;
1949;SDS011;975;48.760;9.152;2023-04-21T07:42:22;21.40;;;10.27;;
1949;SDS011;975;48.760;9.152;2023-04-21T07:44:54;18.10;;;10.20;;
1949;SDS011;975;48.760;9.152;2023-04-21T07:47:22;23.83;;;11.10;;
1949;SDS011;975;48.760;9.152;2023-04-21T07:49:50;19.65;;;11.13;;
1949;SDS011;975;48.760;9.152;2023-04-21T07:52:18;20.95;;;11.40;;
1949;SDS011;975;48.760;9.152;2023-04-21T07:54:45;19.05;;;10.00;;
1949;SDS011;975;48.760;9.152;2023-04-21T07:57:14;19.38;;;10.13;;
1949;SDS011;975;48.760;9.152;2023-04-21T07:59:42;20.73;;;10.25;;
1949;SDS011;975;48.760;9.152;2023-04-21T08:02:10;18.15;;;9.80;;
1949;SDS011;975;48.760;9.152;2023-04-21T08:04:37;19.48;;;9.02;;
1949;SDS011;975;48.760;9.152;2023-04-21T08:07:05;16.42;;;8.32;;
1949;SDS011;975;48.760;9.152;2023-04-21T08:09:34;16.48;;;9.18;;
1949;SDS011;975;48.760;9.152;2023-04-21T08:12:01;17.33;;;8.82;;
1949;SDS011;975;48.760;9.152;2023-04-21T08:14:30;19.17;;;9.52;;
1949;SDS011;975;48.760;9.152;2023-04-21T08:16:58;14.20;;;7.97;;
1949;SDS011;975;48.760;9.152;2023-04-21T08:19:26;16.00;;;9.00;;
1949;SDS011;975;48.760;9.152;2023-04-21T08:21:53;15.27;;;8.45;;
1949;SDS011;975;48.760;9.152;2023-04-21T08:24:22;15.55;;;8.20;;
1949;SDS011;975;48.760;9.152;2023-04-21T08:26:50;14.40;;;8.32;;
1949;SDS011;975;48.760;9.152;2023-04-21T08:29:18;18.63;;;8.35;;
1949;SDS011;975;48.760;9.152;2023-04-21T08:31:47;16.02;;;7.85;;
1949;SDS011;975;48.760;9.152;2023-04-21T08:34:14;14.48;;;8.15;;
1949;SDS011;975;48.760;9.152;2023-04-21T08:36:44;13.63;;;7.55;;
1949;SDS011;975;48.760;9.152;2023-04-21T08:39:12;12.93;;;7.38;;
1949;SDS011;975;48.760;9.152;2023-04-21T08:41:40;15.38;;;7.93;;
1949;SDS011;975;48.760;9.152;2023-04-21T08:44:08;17.75;;;8.10;;
1949;SDS011;975;48.760;9.152;2023-04-21T08:46:37;15.68;;;8.68;;
1949;SDS011;975;48.760;9.152;2023-04-21T08:49:06;16.70;;;8.98;;
1949;SDS011;975;48.760;9.152;2023-04-21T08:51:35;15.15;;;8.02;;
1949;SDS011;975;48.760;9.152;2023-04-21T08:54:03;21.90;;;9.57;;
1949;SDS011;975;48.760;9.152;2023-04-21T08:56:31;15.13;;;8.23;;
1949;SDS011;975;48.760;9.152;2023-04-21T08:58:58;15.15;;;8.63;;
1949;SDS011;975;48.760;9.152;2023-04-21T09:01:26;17.35;;;8.93;;
1949;SDS011;975;48.760;9.152;2023-04-21T09:03:55;15.10;;;8.15;;
1949;SDS011;975;48.760;9.152;2023-04-21T09:06:43;16.42;;;7.85;;
1949;SDS011;975;48.760;9.152;2023-04-21T09:09:10;15.45;;;7.93;;
1949;SDS011;975;48.760;9.152;2023-04-21T09:11:38;16.70;;;8.38;;
1949;SDS011;975;48.760;9.152;2023-04-21T09:14:05;15.75;;;7.63;;
1949;SDS011;975;48.760;9.152;2023-04-21T09:16:34;15.45;;;7.38;;
1949;SDS011;975;48.760;9.152;2023-04-21T09:19:01;11.75;;;6.35;;
1949;SDS011;975;48.760;9.152;2023-04-21T09:21:29;14.70;;;7.25;;
1949;SDS011;975;48.760;9.152;2023-04-21T09:24:03;13.18;;;7.78;;
1949;SDS011;975;48.760;9.152;2023-04-21T09:26:32;16.15;;;7.88;;
1949;SDS011;975;48.760;9.152;2023-04-21T09:29:00;14.25;;;8.23;;
1949;SDS011;975;48.760;9.152;2023-04-21T09:31:33;16.38;;;8.02;;
1949;SDS011;975;48.760;9.152;2023-04-21T09:34:01;14.25;;;6.82;;
1949;SDS011;975;48.760;9.152;2023-04-21T09:36:29;13.27;;;7.20;;
1949;SDS011;975;48.760;9.152;2023-04-21T09:38:57;12.40;;;6.60;;
1949;SDS011;975;48.760;9.152;2023-04-21T09:41:27;12.82;;;6.78;;
1949;SDS011;975;48.760;9.152;2023-04-21T09:43:55;10.18;;;6.45;;
1949;SDS011;975;48.760;9.152;2023-04-21T09:46:25;11.93;;;6.60;;
1949;SDS011;975;48.760;9.152;2023-04-21T09:48:57;13.02;;;6.55;;
1949;SDS011;975;48.760;9.152;2023-04-21T09:51:26;10.27;;;5.85;;
1949;SDS011;975;48.760;9.152;2023-04-21T09:53:57;9.30;;;5.78;;
1949;SDS011;975;48.760;9.152;2023-04-21T09:56:25;10.95;;;5.90;;
1949;SDS011;975;48.760;9.152;2023-04-21T09:58:57;10.35;;;5.97;;
1949;SDS011;975;48.760;9.152;2023-04-21T10:01:28;9.98;;;5.93;;
1949;SDS011;975;48.760;9.152;2023-04-21T10:03:56;10.05;;;5.50;;
1949;SDS011;975;48.760;9.152;2023-04-21T10:06:24;10.18;;;5.20;;
1949;SDS011;975;48.760;9.152;2023-04-21T10:08:52;11.88;;;5.80;;
1949;SDS011;975;48.760;9.152;2023-04-21T10:11:21;10.82;;;5.85;;
1949;SDS011;975;48.760;9.152;2023-04-21T10:13:48;8.40;;;4.63;;
1949;SDS011;975;48.760;9.152;2023-04-21T10:16:18;9.23;;;4.97;;
1949;SDS011;975;48.760;9.152;2023-04-21T10:18:48;9.40;;;5.35;;
1949;SDS011;975;48.760;9.152;2023-04-21T10:21:16;9.20;;;5.20;;
1949;SDS011;975;48.760;9.152;2023-04-21T10:24:10;9.73;;;5.22;;
1949;SDS011;975;48.760;9.152;2023-04-21T10:26:59;10.48;;;5.85;;
1949;SDS011;975;48.760;9.152;2023-04-21T10:29:34;10.18;;;5.15;;
1949;SDS011;975;48.760;9.152;2023-04-21T10:32:16;8.88;;;5.10;;
1949;SDS011;975;48.760;9.152;2023-04-21T10:37:36;9.52;;;4.95;;
1949;SDS011;975;48.760;9.152;2023-04-21T10:43:03;8.18;;;4.80;;
1949;SDS011;975;48.760;9.152;2023-04-21T10:45:41;9.98;;;5.43;;
1949;SDS011;975;48.760;9.152;2023-04-21T10:48:22;8.43;;;4.97;;
1949;SDS011;975;48.760;9.152;2023-04-21T10:50:55;7.72;;;5.15;;
1949;SDS011;975;48.760;9.152;2023-04-21T10:53:27;7.75;;;4.78;;
1949;SDS011;975;48.760;9.152;2023-04-21T10:56:07;8.07;;;4.63;;
1949;SDS011;975;48.760;9.152;2023-04-21T10:58:49;7.88;;;4.47;;
1949;SDS011;975;48.760;9.152;2023-04-21T11:01:39;8.25;;;4.95;;
1949;SDS011;975;48.760;9.152;2023-04-21T11:04:23;11.02;;;5.88;;
1949;SDS011;975;48.760;9.152;2023-04-21T11:07:11;10.48;;;5.78;;
1949;SDS011;975;48.760;9.152;2023-04-21T11:09:44;8.57;;;5.47;;
1949;SDS011;975;48.760;9.152;2023-04-21T11:12:16;8.57;;;5.13;;
1949;SDS011;975;48.760;9.152;2023-04-21T11:14:54;8.77;;;5.63;;
1949;SDS011;975;48.760;9.152;2023-04-21T11:17:52;9.55;;;6.03;;
1949;SDS011;975;48.760;9.152;2023-04-21T11:20:23;10.80;;;6.32;;
1949;SDS011;975;48.760;9.152;2023-04-21T11:25:57;10.43;;;5.82;;
1949;SDS011;975;48.760;9.152;2023-04-21T11:28:34;8.80;;;5.57;;
1949;SDS011;975;48.760;9.152;2023-04-21T11:31:16;7.80;;;5.35;;
1949;SDS011;975;48.760;9.152;2023-04-21T11:33:57;9.05;;;5.70;;
1949;SDS011;975;48.760;9.152;2023-04-21T11:36:35;9.60;;;5.80;;
1949;SDS011;975;48.760;9.152;2023-04-21T11:39:08;8.90;;;5.32;;
1949;SDS011;975;48.760;9.152;2023-04-21T11:41:46;10.45;;;5.75;;
1949;SDS011;975;48.760;9.152;2023-04-21T11:44:52;9.35;;;5.70;;
1949;SDS011;975;48.760;9.152;2023-04-21T11:47:35;8.45;;;5.13;;
1949;SDS011;975;48.760;9.152;2023-04-21T11:50:28;9.55;;;4.85;;
1949;SDS011;975;48.760;9.152;2023-04-21T11:53:18;8.82;;;5.05;;
1949;SDS011;975;48.760;9.152;2023-04-21T11:55:54;11.52;;;5.82;;
1949;SDS011;975;48.760;9.152;2023-04-21T11:58:40;12.50;;;5.00;;
1949;SDS011;975;48.760;9.152;2023-04-21T12:01:15;7.80;;;4.95;;
1949;SDS011;975;48.760;9.152;2023-04-21T12:03:49;9.80;;;5.40;;
1949;SDS011;975;48.760;9.152;2023-04-21T12:06:20;8.52;;;4.80;;
1949;SDS011;975;48.760;9.152;2023-04-21T12:08:53;8.43;;;5.32;;
1949;SDS011;975;48.760;9.152;2023-04-21T12:11:26;8.63;;;4.88;;
1949;SDS011;975;48.760;9.152;2023-04-21T12:13:55;8.43;;;5.38;;
1949;SDS011;975;48.760;9.152;2023-04-21T12:16:23;8.73;;;5.18;;
1949;SDS011;975;48.760;9.152;2023-04-21T12:18:51;9.35;;;4.68;;
1949;SDS011;975;48.760;9.152;2023-04-21T12:21:19;8.82;;;4.75;;
1949;SDS011;975;48.760;9.152;2023-04-21T12:23:46;7.43;;;4.68;;
1949;SDS011;975;48.760;9.152;2023-04-21T12:26:15;8.13;;;5.35;;
1949;SDS011;975;48.760;9.152;2023-04-21T12:28:43;7.53;;;4.60;;
1949;SDS011;975;48.760;9.152;2023-04-21T12:31:11;7.78;;;5.07;;
1949;SDS011;975;48.760;9.152;2023-04-21T12:33:38;9.07;;;4.93;;
1949;SDS011;975;48.760;9.152;2023-04-21T12:36:06;6.97;;;4.85;;
1949;SDS011;975;48.760;9.152;2023-04-21T12:38:36;6.72;;;4.88;;
1949;SDS011;975;48.760;9.152;2023-04-21T12:41:05;8.27;;;5.13;;
1949;SDS011;975;48.760;9.152;2023-04-21T12:43:37;8.95;;;4.82;;
1949;SDS011;975;48.760;9.152;2023-04-21T12:46:04;7.38;;;4.97;;
1949;SDS011;975;48.760;9.152;2023-04-21T12:48:33;7.85;;;5.03;;
1949;SDS011;975;48.760;9.152;2023-04-21T12:51:01;6.82;;;4.03;;
1949;SDS011;975;48.760;9.152;2023-04-21T12:53:28;7.65;;;4.28;;
1949;SDS011;975;48.760;9.152;2023-04-21T12:55:56;5.43;;;3.85;;
1949;SDS011;975;48.760;9.152;2023-04-21T12:58:24;5.25;;;3.83;;
1949;SDS011;975;48.760;9.152;2023-04-21T13:00:53;6.10;;;3.53;;
1949;SDS011;975;48.760;9.152;2023-04-21T13:03:24;8.10;;;4.82;;
1949;SDS011;975;48.760;9.152;2023-04-21T13:05:54;7.18;;;4.03;;
1949;SDS011;975;48.760;9.152;2023-04-21T13:08:22;5.10;;;3.40;;
1949;SDS011;975;48.760;9.152;2023-04-21T13:10:50;6.15;;;3.70;;
1949;SDS011;975;48.760;9.152;2023-04-21T13:13:18;6.22;;;4.07;;
1949;SDS011;975;48.760;9.152;2023-04-21T13:15:45;7.38;;;3.90;;
1949;SDS011;975;48.760;9.152;2023-04-21T13:18:14;6.05;;;3.85;;
1949;SDS011;975;48.760;9.152;2023-04-21T13:20:41;5.95;;;4.60;;
1949;SDS011;975;48.760;9.152;2023-04-21T13:23:09;6.65;;;4.22;;
1949;SDS011;975;48.760;9.152;2023-04-21T13:25:38;7.88;;;3.85;;
1949;SDS011;975;48.760;9.152;2023-04-21T13:28:06;5.22;;;3.80;;
1949;SDS011;975;48.760;9.152;2023-04-21T13:30:33;4.00;;;3.25;;
1949;SDS011;975;48.760;9.152;2023-04-21T13:33:04;4.88;;;3.58;;
1949;SDS011;975;48.760;9.152;2023-04-21T13:35:33;8.45;;;4.00;;
1949;SDS011;975;48.760;9.152;2023-04-21T13:38:01;4.75;;;3.63;;
1949;SDS011;975;48.760;9.152;2023-04-21T13:40:28;6.90;;;3.60;;
1949;SDS011;975;48.760;9.152;2023-04-21T13:42:56;4.93;;;3.20;;
1949;SDS011;975;48.760;9.152;2023-04-21T13:45:24;3.55;;;3.00;;
1949;SDS011;975;48.760;9.152;2023-04-21T13:47:52;4.20;;;3.33;;
1949;SDS011;975;48.760;9.152;2023-04-21T13:50:20;5.20;;;3.92;;
1949;SDS011;975;48.760;9.152;2023-04-21T13:52:49;6.97;;;3.88;;
1949;SDS011;975;48.760;9.152;2023-04-21T13:55:17;5.70;;;3.53;;
1949;SDS011;975;48.760;9.152;2023-04-21T13:57:45;6.30;;;3.58;;
1949;SDS011;975;48.760;9.152;2023-04-21T14:00:13;5.50;;;3.10;;
1949;SDS011;975;48.760;9.152;2023-04-21T14:02:40;4.43;;;3.33;;
1949;SDS011;975;48.760;9.152;2023-04-21T14:05:08;5.25;;;3.15;;
1949;SDS011;975;48.760;9.152;2023-04-21T14:07:36;4.80;;;3.70;;
1949;SDS011;975;48.760;9.152;2023-04-21T14:10:05;4.75;;;3.15;;
1949;SDS011;975;48.760;9.152;2023-04-21T14:12:33;3.97;;;3.17;;
1949;SDS011;975;48.760;9.152;2023-04-21T14:15:01;6.80;;;3.60;;
1949;SDS011;975;48.760;9.152;2023-04-21T14:17:29;3.13;;;2.53;;
1949;SDS011;975;48.760;9.152;2023-04-21T14:19:56;3.13;;;2.50;;
1949;SDS011;975;48.760;9.152;2023-04-21T14:22:24;4.05;;;2.60;;
1949;SDS011;975;48.760;9.152;2023-04-21T14:24:55;3.03;;;2.65;;
1949;SDS011;975;48.760;9.152;2023-04-21T14:29:57;4.43;;;2.70;;
1949;SDS011;975;48.760;9.152;2023-04-21T14:32:25;3.03;;;2.70;;
1949;SDS011;975;48.760;9.152;2023-04-21T14:34:53;3.40;;;2.67;;
1949;SDS011;975;48.760;9.152;2023-04-21T14:37:23;2.40;;;2.20;;
1949;SDS011;975;48.760;9.152;2023-04-21T14:39:51;3.90;;;2.58;;
1949;SDS011;975;48.760;9.152;2023-04-21T14:42:18;3.25;;;2.50;;
1949;SDS011;975;48.760;9.152;2023-04-21T14:44:46;4.57;;;2.63;;
1949;SDS011;975;48.760;9.152;2023-04-21T14:47:15;4.32;;;2.60;;
1949;SDS011;975;48.760;9.152;2023-04-21T14:49:43;4.28;;;2.20;;
1949;SDS011;975;48.760;9.152;2023-04-21T14:52:10;2.10;;;1.90;;
1949;SDS011;975;48.760;9.152;2023-04-21T14:54:38;2.22;;;1.77;;
1949;SDS011;975;48.760;9.152;2023-04-21T14:57:05;3.33;;;1.83;;
1949;SDS011;975;48.760;9.152;2023-04-21T14:59:33;2.53;;;1.70;;
1949;SDS011;975;48.760;9.152;2023-04-21T15:02:01;3.13;;;1.52;;
1949;SDS011;975;48.760;9.152;2023-04-21T15:04:30;2.45;;;1.60;;
1949;SDS011;975;48.760;9.152;2023-04-21T15:06:57;2.05;;;1.70;;
1949;SDS011;975;48.760;9.152;2023-04-21T15:09:31;2.40;;;1.63;;
1949;SDS011;975;48.760;9.152;2023-04-21T15:11:59;1.73;;;1.60;;
1949;SDS011;975;48.760;9.152;2023-04-21T15:14:27;3.25;;;1.80;;
1949;SDS011;975;48.760;9.152;2023-04-21T15:16:55;2.08;;;1.63;;
1949;SDS011;975;48.760;9.152;2023-04-21T15:19:22;2.10;;;1.85;;
1949;SDS011;975;48.760;9.152;2023-04-21T15:21:51;2.63;;;2.13;;
1949;SDS011;975;48.760;9.152;2023-04-21T15:24:18;2.47;;;1.95;;
1949;SDS011;975;48.760;9.152;2023-04-21T15:26:46;2.35;;;1.90;;
1949;SDS011;975;48.760;9.152;2023-04-21T15:29:13;3.08;;;1.95;;
1949;SDS011;975;48.760;9.152;2023-04-21T15:31:40;3.33;;;1.92;;
1949;SDS011;975;48.760;9.152;2023-04-21T15:34:08;2.55;;;1.70;;
1949;SDS011;975;48.760;9.152;2023-04-21T15:36:35;3.13;;;1.92;;